Wetterstation 29328 Müden/Ö

Wetterdaten: aktuell Mittwoch, 22.11.2017 10:20
Datum Zeit Temp. A. Feuchte A. Luftdruck Regen Wind Richtung Richtung Windben
22.11.2017 10:20 9,7 C 98 % 1005,6 hPa 0,0 l/m 7,9 km/h (2 Bft) W-NW 288 19,3 km/h (3 Bft)
22.11.2017 10:15 9,6 C 98 % 1005,6 hPa 0,0 l/m 10,1 km/h (2 Bft) W 281 19,3 km/h (3 Bft)
22.11.2017 10:10 9,6 C 98 % 1005,5 hPa 0,0 l/m 10,3 km/h (2 Bft) W-SW 256 20,9 km/h (4 Bft)
22.11.2017 10:05 9,6 C 98 % 1005,5 hPa 0,0 l/m 9,8 km/h (2 Bft) W-SW 256 16,1 km/h (3 Bft)
22.11.2017 10:00 9,6 C 98 % 1005,4 hPa 0,0 l/m 8,6 km/h (2 Bft) W-SW 250 25,7 km/h (4 Bft)
22.11.2017 09:55 9,6 C 98 % 1005,3 hPa 0,0 l/m 6,2 km/h (2 Bft) W 267 12,9 km/h (3 Bft)
22.11.2017 09:50 9,6 C 98 % 1005,2 hPa 0,0 l/m 10,5 km/h (2 Bft) W-SW 243 20,9 km/h (4 Bft)
22.11.2017 09:45 9,6 C 98 % 1005,2 hPa 0,0 l/m 10,6 km/h (2 Bft) W 260 20,9 km/h (4 Bft)
22.11.2017 09:40 9,6 C 98 % 1005,3 hPa 0,0 l/m 10,1 km/h (2 Bft) W-SW 258 19,3 km/h (3 Bft)
22.11.2017 09:35 9,6 C 98 % 1005,2 hPa 0,0 l/m 9,1 km/h (2 Bft) W-SW 240 17,7 km/h (3 Bft)
22.11.2017 09:30 9,6 C 98 % 1005,3 hPa 0,0 l/m 12,4 km/h (3 Bft) W 261 24,1 km/h (4 Bft)
22.11.2017 09:25 9,5 C 98 % 1005,3 hPa 0,0 l/m 11,9 km/h (2 Bft) W 259 24,1 km/h (4 Bft)
22.11.2017 09:20 9,5 C 97 % 1005,2 hPa 0,0 l/m 10,1 km/h (2 Bft) W 276 20,9 km/h (4 Bft)
22.11.2017 09:15 9,4 C 97 % 1005,2 hPa 0,0 l/m 11,6 km/h (2 Bft) W-NW 300 27,4 km/h (4 Bft)
22.11.2017 09:10 9,4 C 97 % 1005,2 hPa 0,0 l/m 9,9 km/h (2 Bft) SW 227 20,9 km/h (4 Bft)
22.11.2017 09:05 9,4 C 97 % 1005,1 hPa 0,0 l/m 10,4 km/h (2 Bft) W-NW 295 22,5 km/h (4 Bft)
22.11.2017 09:00 9,4 C 97 % 1005,1 hPa 0,0 l/m 13,7 km/h (3 Bft) W 264 27,4 km/h (4 Bft)
22.11.2017 08:55 9,4 C 97 % 1005,0 hPa 0,0 l/m 11,8 km/h (2 Bft) W-NW 282 27,4 km/h (4 Bft)
22.11.2017 08:50 9,3 C 97 % 1005,0 hPa 0,0 l/m 10,2 km/h (2 Bft) W-NW 297 19,3 km/h (3 Bft)
22.11.2017 08:45 9,3 C 97 % 1004,8 hPa 0,0 l/m 11,6 km/h (2 Bft) W 270 25,7 km/h (4 Bft)
22.11.2017 08:40 9,3 C 97 % 1004,9 hPa 0,0 l/m 9,5 km/h (2 Bft) W-NW 294 19,3 km/h (3 Bft)
22.11.2017 08:35 9,3 C 98 % 1004,8 hPa 0,0 l/m 9,2 km/h (2 Bft) W-NW 293 22,5 km/h (4 Bft)
22.11.2017 08:30 9,3 C 98 % 1004,7 hPa 0,0 l/m 15,5 km/h (3 Bft) W 267 24,1 km/h (4 Bft)
22.11.2017 08:25 9,3 C 98 % 1004,6 hPa 0,0 l/m 11,5 km/h (2 Bft) W-SW 252 24,1 km/h (4 Bft)
22.11.2017 08:20 9,3 C 98 % 1004,5 hPa 0,0 l/m 11,5 km/h (2 Bft) W-SW 257 20,9 km/h (4 Bft)
22.11.2017 08:15 9,3 C 98 % 1004,5 hPa 0,0 l/m 12,0 km/h (2 Bft) W-SW 258 27,4 km/h (4 Bft)
22.11.2017 08:10 9,2 C 98 % 1004,5 hPa 0,0 l/m 12,1 km/h (2 Bft) W 266 20,9 km/h (4 Bft)
22.11.2017 08:05 9,2 C 98 % 1004,6 hPa 0,0 l/m 10,8 km/h (2 Bft) W 273 25,7 km/h (4 Bft)
22.11.2017 08:00 9,2 C 98 % 1004,6 hPa 0,0 l/m 7,8 km/h (2 Bft) W-SW 254 16,1 km/h (3 Bft)
22.11.2017 07:55 9,2 C 98 % 1004,5 hPa 0,0 l/m 10,6 km/h (2 Bft) W 273 17,7 km/h (3 Bft)
22.11.2017 07:50 9,2 C 97 % 1004,5 hPa 0,0 l/m 11,2 km/h (2 Bft) W 272 24,1 km/h (4 Bft)
22.11.2017 07:45 9,1 C 97 % 1004,4 hPa 0,0 l/m 10,7 km/h (2 Bft) W-SW 244 22,5 km/h (4 Bft)
22.11.2017 07:40 9,1 C 97 % 1004,4 hPa 0,2 l/m 13,7 km/h (3 Bft) W-NW 296 27,4 km/h (4 Bft)
22.11.2017 07:35 9,1 C 97 % 1004,4 hPa 0,0 l/m 11,5 km/h (2 Bft) W-SW 255 24,1 km/h (4 Bft)
22.11.2017 07:30 9,1 C 97 % 1004,4 hPa 0,0 l/m 12,2 km/h (2 Bft) W 279 24,1 km/h (4 Bft)
22.11.2017 07:25 9,1 C 97 % 1004,4 hPa 0,0 l/m 14,4 km/h (3 Bft) W-NW 293 27,4 km/h (4 Bft)
22.11.2017 07:20 9,1 C 97 % 1004,3 hPa 0,0 l/m 8,1 km/h (2 Bft) W 263 17,7 km/h (3 Bft)
22.11.2017 07:15 9,0 C 98 % 1004,3 hPa 0,0 l/m 8,9 km/h (2 Bft) W 271 17,7 km/h (3 Bft)
22.11.2017 07:10 9,0 C 98 % 1004,2 hPa 0,0 l/m 14,6 km/h (3 Bft) W-SW 249 24,1 km/h (4 Bft)
22.11.2017 07:05 9,0 C 98 % 1004,2 hPa 0,0 l/m 11,9 km/h (2 Bft) W 269 22,5 km/h (4 Bft)
22.11.2017 07:00 8,9 C 98 % 1004,1 hPa 0,0 l/m 11,8 km/h (2 Bft) W 275 27,4 km/h (4 Bft)
22.11.2017 06:55 8,9 C 98 % 1004,0 hPa 0,0 l/m 9,3 km/h (2 Bft) W-SW 255 19,3 km/h (3 Bft)
22.11.2017 06:50 8,9 C 98 % 1004,1 hPa 0,0 l/m 11,0 km/h (2 Bft) W-SW 253 22,5 km/h (4 Bft)
22.11.2017 06:45 8,9 C 98 % 1004,1 hPa 0,0 l/m 7,8 km/h (2 Bft) NW 304 17,7 km/h (3 Bft)
22.11.2017 06:40 8,9 C 98 % 1004,2 hPa 0,0 l/m 9,8 km/h (2 Bft) W-SW 243 27,4 km/h (4 Bft)
22.11.2017 06:35 8,9 C 98 % 1004,2 hPa 0,0 l/m 11,5 km/h (2 Bft) W 267 22,5 km/h (4 Bft)
22.11.2017 06:30 8,9 C 98 % 1004,1 hPa 0,0 l/m 14,0 km/h (3 Bft) S-SW 195 24,1 km/h (4 Bft)
22.11.2017 06:25 8,9 C 98 % 1004,2 hPa 0,0 l/m 10,4 km/h (2 Bft) W-SW 250 20,9 km/h (4 Bft)
22.11.2017 06:20 8,9 C 98 % 1004,1 hPa 0,0 l/m 9,0 km/h (2 Bft) SW 225 19,3 km/h (3 Bft)
22.11.2017 06:15 8,9 C 98 % 1004,1 hPa 0,0 l/m 11,0 km/h (2 Bft) W-SW 252 19,3 km/h (3 Bft)
22.11.2017 06:10 8,9 C 98 % 1004,2 hPa 0,0 l/m 7,6 km/h (2 Bft) S-SW 209 17,7 km/h (3 Bft)
22.11.2017 06:05 8,9 C 98 % 1004,3 hPa 0,0 l/m 8,6 km/h (2 Bft) SW 215 19,3 km/h (3 Bft)
22.11.2017 06:00 8,9 C 98 % 1004,3 hPa 0,0 l/m 10,4 km/h (2 Bft) W-SW 258 20,9 km/h (4 Bft)
22.11.2017 05:55 8,9 C 98 % 1004,3 hPa 0,0 l/m 11,3 km/h (2 Bft) W 262 24,1 km/h (4 Bft)
22.11.2017 05:50 8,9 C 98 % 1004,5 hPa 0,0 l/m 9,1 km/h (2 Bft) W-SW 252 22,5 km/h (4 Bft)
22.11.2017 05:45 8,9 C 98 % 1004,6 hPa 0,0 l/m 9,0 km/h (2 Bft) W-SW 242 19,3 km/h (3 Bft)
22.11.2017 05:40 8,9 C 98 % 1004,5 hPa 0,0 l/m 7,3 km/h (2 Bft) W-SW 258 16,1 km/h (3 Bft)
22.11.2017 05:35 8,9 C 98 % 1004,5 hPa 0,0 l/m 11,5 km/h (2 Bft) W-SW 254 20,9 km/h (4 Bft)
22.11.2017 05:30 8,9 C 98 % 1004,6 hPa 0,0 l/m 11,2 km/h (2 Bft) SW 235 20,9 km/h (4 Bft)
22.11.2017 05:25 8,9 C 98 % 1004,6 hPa 0,0 l/m 10,6 km/h (2 Bft) W 275 19,3 km/h (3 Bft)
22.11.2017 05:20 8,9 C 98 % 1004,6 hPa 0,0 l/m 11,0 km/h (2 Bft) W 273 20,9 km/h (4 Bft)
_ Min-Zeit 05:05 07:20 06:55 - 09:55 - - 09:55
Minimum _ 8,9 C 97 % 1004,0 hPa - 6,2 km/h (2 Bft) - - 12,9 km/h (3 Bft)
_ Max-Zeit 00:00 00:00 00:00 00:20 08:30 - - 04:50
Maximum _ 10,1 C 99 % 1006,1 hPa 0,2 l/m 15,5 km/h
W (3 Bft)
- - 32,2 km/h
W (5 Bft)
Durchschnitt _ 9,3 C 98 % 1005,0 hPa #1,8 l/m 10,9 km/h (2 Bft) W-SW - 22,6 km/h (4 Bft)

nach oben

Copyright 2006 - 2017 fr den gesamten Inhalt der Webseite